Map

Track Data

SID SEASON NUMBER BASIN SUBBASIN NAME ISO_TIME NATURE LAT LON WMO_WIND WMO_PRES WMO_AGENCY TRACK_TYPE DIST2LAND LANDFALL IFLAG USA_AGENCY USA_ATCF_ID USA_LAT USA_LON USA_RECORD USA_STATUS USA_WIND USA_PRES USA_SSHS USA_R34_NE USA_R34_SE USA_R34_SW USA_R34_NW USA_R50_NE USA_R50_SE USA_R50_SW USA_R50_NW USA_R64_NE USA_R64_SE USA_R64_SW USA_R64_NW USA_POCI USA_ROCI USA_RMW USA_EYE TOKYO_LAT TOKYO_LON TOKYO_GRADE TOKYO_WIND TOKYO_PRES TOKYO_R50_DIR TOKYO_R50_LONG TOKYO_R50_SHORT TOKYO_R30_DIR TOKYO_R30_LONG TOKYO_R30_SHORT TOKYO_LAND CMA_LAT CMA_LON CMA_CAT CMA_WIND CMA_PRES HKO_LAT HKO_LON HKO_CAT HKO_WIND HKO_PRES NEWDELHI_LAT NEWDELHI_LON NEWDELHI_GRADE NEWDELHI_WIND NEWDELHI_PRES NEWDELHI_CI NEWDELHI_DP NEWDELHI_POCI REUNION_LAT REUNION_LON REUNION_TYPE REUNION_WIND REUNION_PRES REUNION_TNUM REUNION_CI REUNION_RMW REUNION_R34_NE REUNION_R34_SE REUNION_R34_SW REUNION_R34_NW REUNION_R50_NE REUNION_R50_SE REUNION_R50_SW REUNION_R50_NW REUNION_R64_NE REUNION_R64_SE REUNION_R64_SW REUNION_R64_NW BOM_LAT BOM_LON BOM_TYPE BOM_WIND BOM_PRES BOM_TNUM BOM_CI BOM_RMW BOM_R34_NE BOM_R34_SE BOM_R34_SW BOM_R34_NW BOM_R50_NE BOM_R50_SE BOM_R50_SW BOM_R50_NW BOM_R64_NE BOM_R64_SE BOM_R64_SW BOM_R64_NW BOM_ROCI BOM_POCI BOM_EYE BOM_POS_METHOD BOM_PRES_METHOD NADI_LAT NADI_LON NADI_CAT NADI_WIND NADI_PRES WELLINGTON_LAT WELLINGTON_LON WELLINGTON_WIND WELLINGTON_PRES DS824_LAT DS824_LON DS824_STAGE DS824_WIND DS824_PRES TD9636_LAT TD9636_LON TD9636_STAGE TD9636_WIND TD9636_PRES TD9635_LAT TD9635_LON TD9635_WIND TD9635_PRES TD9635_ROCI NEUMANN_LAT NEUMANN_LON NEUMANN_CLASS NEUMANN_WIND NEUMANN_PRES MLC_LAT MLC_LON MLC_CLASS MLC_WIND MLC_PRES USA_GUST BOM_GUST BOM_GUST_PER REUNION_GUST REUNION_GUST_PER USA_SEAHGT USA_SEARAD_NE USA_SEARAD_SE USA_SEARAD_SW USA_SEARAD_NW STORM_SPEED STORM_DIR
1919183N25276 1919 15 NA GM NOT_NAMED 1919-07-02 06:00:00 TS 24.6000 -84.3000 25 hurdat_atl main 210 210 O_____________ hurdat_atl AL011919 24.6000 -84.3000 TD 25 -1 5 318
1919183N25276 1919 15 NA GM NOT_NAMED 1919-07-02 09:00:00 TS 24.8051 -84.4998 main 237 237 P_____________ AL011919 24.8051 -84.4998 TD 27 -1 5 318
1919183N25276 1919 15 NA GM NOT_NAMED 1919-07-02 12:00:00 TS 25.0000 -84.7000 30 hurdat_atl main 266 266 O_____________ hurdat_atl AL011919 25.0000 -84.7000 TD 30 -1 5 316
1919183N25276 1919 15 NA GM NOT_NAMED 1919-07-02 15:00:00 TS 25.1850 -84.9001 main 293 293 P_____________ AL011919 25.1850 -84.9001 TD 32 -1 5 318
1919183N25276 1919 15 NA GM NOT_NAMED 1919-07-02 18:00:00 TS 25.4000 -85.1000 35 hurdat_atl main 320 314 O_____________ hurdat_atl AL011919 25.4000 -85.1000 TS 35 0 6 324
1919183N25276 1919 15 NA GM NOT_NAMED 1919-07-02 21:00:00 TS 25.6775 -85.3001 main 322 319 P_____________ AL011919 25.6775 -85.3001 TS 37 0 7 329
1919183N25276 1919 15 NA GM NOT_NAMED 1919-07-03 00:00:00 TS 26.0000 -85.5000 40 hurdat_atl main 322 317 O_____________ hurdat_atl AL011919 26.0000 -85.5000 TS 40 0 8 331
1919183N25276 1919 15 NA GM NOT_NAMED 1919-07-03 03:00:00 TS 26.3350 -85.7001 main 327 321 P_____________ AL011919 26.3350 -85.7001 TS 42 0 8 333
1919183N25276 1919 15 NA GM NOT_NAMED 1919-07-03 06:00:00 TS 26.7000 -85.9000 45 hurdat_atl main 325 298 O_____________ hurdat_atl AL011919 26.7000 -85.9000 TS 45 0 8 334
1919183N25276 1919 15 NA GM NOT_NAMED 1919-07-03 09:00:00 TS 27.0925 -86.1075 main 298 260 P_____________ AL011919 27.0925 -86.1075 TS 47 0 9 336
1919183N25276 1919 15 NA GM NOT_NAMED 1919-07-03 12:00:00 TS 27.5000 -86.3000 50 hurdat_atl main 260 223 O_____________ hurdat_atl AL011919 27.5000 -86.3000 TS 50 0 9 339
1919183N25276 1919 15 NA GM NOT_NAMED 1919-07-03 15:00:00 TS 27.9000 -86.4651 main 227 194 P_____________ AL011919 27.9000 -86.4651 TS 52 0 8 342
1919183N25276 1919 15 NA GM NOT_NAMED 1919-07-03 18:00:00 TS 28.3000 -86.6000 55 hurdat_atl main 194 168 O_____________ hurdat_atl AL011919 28.3000 -86.6000 TS 55 0 8 345
1919183N25276 1919 15 NA GM NOT_NAMED 1919-07-03 21:00:00 TS 28.7000 -86.7151 main 168 139 P_____________ AL011919 28.7000 -86.7151 TS 55 0 8 347
1919183N25276 1919 15 NA GM NOT_NAMED 1919-07-04 00:00:00 TS 29.1000 -86.8000 55 hurdat_atl main 139 93 O_____________ hurdat_atl AL011919 29.1000 -86.8000 TS 55 0 8 351
1919183N25276 1919 15 NA GM NOT_NAMED 1919-07-04 03:00:00 TS 29.5164 -86.8558 main 93 53 P_____________ AL011919 29.5164 -86.8558 TS 55 0 8 354
1919183N25276 1919 15 NA GM NOT_NAMED 1919-07-04 06:00:00 TS 29.9000 -86.9000 55 995 hurdat_atl main 53 33 O_____________ hurdat_atl AL011919 29.9000 -86.9000 TS 55 995 0 6 356
1919183N25276 1919 15 NA GM NOT_NAMED 1919-07-04 09:00:00 TS 30.1365 -86.9030 main 33 9 P_____________ AL011919 30.1365 -86.9030 TS 55 995 0 6 350
1919183N25276 1919 15 NA GM NOT_NAMED 1919-07-04 11:00:00 TS 30.4000 -87.0000 55 995 hurdat_atl main 9 0 O_____________ hurdat_atl AL011919 30.4000 -87.0000 L TS 55 995 0 10 340
1919183N25276 1919 15 NA NA NOT_NAMED 1919-07-04 12:00:00 TS 30.6000 -87.1000 45 hurdat_atl main 0 0 O_____________ hurdat_atl AL011919 30.6000 -87.1000 TS 45 0 9 340
1919183N25276 1919 15 NA NA NOT_NAMED 1919-07-04 15:00:00 TS 30.9869 -87.2485 main 0 0 P_____________ AL011919 30.9869 -87.2485 TS 40 0 6 344
1919183N25276 1919 15 NA NA NOT_NAMED 1919-07-04 18:00:00 TS 31.2000 -87.3000 35 hurdat_atl main 0 0 O_____________ hurdat_atl AL011919 31.2000 -87.3000 TS 35 0 5 341
1919183N25276 1919 15 NA NA NOT_NAMED 1919-07-04 21:00:00 TS 31.4575 -87.4426 main 0 0 P_____________ AL011919 31.4575 -87.4426 TS 32 -1 6 333
1919183N25276 1919 15 NA NA NOT_NAMED 1919-07-05 00:00:00 TS 31.7000 -87.6000 30 hurdat_atl main 0 0 O_____________ hurdat_atl AL011919 31.7000 -87.6000 TD 30 -1 6 332
1919183N25276 1919 15 NA NA NOT_NAMED 1919-07-05 03:00:00 TS 31.9500 -87.7501 main 0 0 P_____________ AL011919 31.9500 -87.7501 TD 27 -1 6 333
1919183N25276 1919 15 NA NA NOT_NAMED 1919-07-05 06:00:00 TS 32.2000 -87.9000 25 hurdat_atl main 0 0 O_____________ hurdat_atl AL011919 32.2000 -87.9000 TD 25 -1 6 333
1919183N25276 1919 15 NA NA NOT_NAMED 1919-07-05 09:00:00 TS 32.4500 -88.0501 main 0 0 P_____________ AL011919 32.4500 -88.0501 TD 22 -1 6 333
1919183N25276 1919 15 NA NA NOT_NAMED 1919-07-05 12:00:00 TS 32.7000 -88.2000 20 hurdat_atl main 0 0 O_____________ hurdat_atl AL011919 32.7000 -88.2000 TD 20 -1 6 333
1919183N25276 1919 15 NA NA NOT_NAMED 1919-07-05 15:00:00 TS 32.9500 -88.3498 main 0 0 P_____________ AL011919 32.9500 -88.3498 TD 20 -1 6 333
1919183N25276 1919 15 NA NA NOT_NAMED 1919-07-05 18:00:00 TS 33.2000 -88.5000 20 hurdat_atl main 0 O_____________ hurdat_atl AL011919 33.2000 -88.5000 TD 20 -1 6 333

About IBTrACS Database

This database is a web-friendly format of International Best Track Archive for Climate Stewardship (IBTrACS), a global best track data archive curated by NOAA dating back to 1842.

Updated: 2021-10-19